sensor_id;sensor_type;location;lat;lon;timestamp;P1;durP1;ratioP1;P2;durP2;ratioP2
63587;SDS011;49966;46.896;18.004;2023-07-30T00:01:41;2.10;;;1.90;;
63587;SDS011;49966;46.896;18.004;2023-07-30T00:04:10;4.10;;;2.10;;
63587;SDS011;49966;46.896;18.004;2023-07-30T00:06:39;2.47;;;2.10;;
63587;SDS011;49966;46.896;18.004;2023-07-30T00:09:07;5.95;;;1.90;;
63587;SDS011;49966;46.896;18.004;2023-07-30T00:11:35;2.30;;;1.90;;
63587;SDS011;49966;46.896;18.004;2023-07-30T00:14:04;3.45;;;1.77;;
63587;SDS011;49966;46.896;18.004;2023-07-30T00:16:33;1.90;;;1.80;;
63587;SDS011;49966;46.896;18.004;2023-07-30T00:19:01;2.10;;;1.90;;
63587;SDS011;49966;46.896;18.004;2023-07-30T00:21:31;2.25;;;1.77;;
63587;SDS011;49966;46.896;18.004;2023-07-30T00:23:59;1.75;;;1.55;;
63587;SDS011;49966;46.896;18.004;2023-07-30T00:26:27;1.73;;;1.50;;
63587;SDS011;49966;46.896;18.004;2023-07-30T00:28:56;1.50;;;1.40;;
63587;SDS011;49966;46.896;18.004;2023-07-30T00:31:24;2.85;;;1.70;;
63587;SDS011;49966;46.896;18.004;2023-07-30T00:33:53;1.83;;;1.40;;
63587;SDS011;49966;46.896;18.004;2023-07-30T00:36:21;1.60;;;1.50;;
63587;SDS011;49966;46.896;18.004;2023-07-30T00:38:50;2.38;;;1.63;;
63587;SDS011;49966;46.896;18.004;2023-07-30T00:41:19;1.70;;;1.60;;
63587;SDS011;49966;46.896;18.004;2023-07-30T00:43:47;2.88;;;1.70;;
63587;SDS011;49966;46.896;18.004;2023-07-30T00:46:15;3.60;;;1.65;;
63587;SDS011;49966;46.896;18.004;2023-07-30T00:48:44;1.80;;;1.50;;
63587;SDS011;49966;46.896;18.004;2023-07-30T00:51:13;1.80;;;1.67;;
63587;SDS011;49966;46.896;18.004;2023-07-30T00:53:43;1.85;;;1.67;;
63587;SDS011;49966;46.896;18.004;2023-07-30T00:56:13;2.88;;;1.60;;
63587;SDS011;49966;46.896;18.004;2023-07-30T00:58:42;2.15;;;1.40;;
63587;SDS011;49966;46.896;18.004;2023-07-30T01:01:11;1.67;;;1.52;;
63587;SDS011;49966;46.896;18.004;2023-07-30T01:03:40;1.80;;;1.70;;
63587;SDS011;49966;46.896;18.004;2023-07-30T01:06:08;1.70;;;1.60;;
63587;SDS011;49966;46.896;18.004;2023-07-30T01:08:36;1.48;;;1.38;;
63587;SDS011;49966;46.896;18.004;2023-07-30T01:11:05;2.40;;;1.67;;
63587;SDS011;49966;46.896;18.004;2023-07-30T01:13:36;2.35;;;1.60;;
63587;SDS011;49966;46.896;18.004;2023-07-30T01:16:05;1.88;;;1.63;;
63587;SDS011;49966;46.896;18.004;2023-07-30T01:18:34;2.03;;;1.70;;
63587;SDS011;49966;46.896;18.004;2023-07-30T01:21:04;1.52;;;1.33;;
63587;SDS011;49966;46.896;18.004;2023-07-30T01:23:32;1.60;;;1.50;;
63587;SDS011;49966;46.896;18.004;2023-07-30T01:26:02;1.65;;;1.55;;
63587;SDS011;49966;46.896;18.004;2023-07-30T01:28:34;2.88;;;1.85;;
63587;SDS011;49966;46.896;18.004;2023-07-30T01:31:05;1.90;;;1.80;;
63587;SDS011;49966;46.896;18.004;2023-07-30T01:33:35;6.03;;;1.80;;
63587;SDS011;49966;46.896;18.004;2023-07-30T01:36:08;1.98;;;1.55;;
63587;SDS011;49966;46.896;18.004;2023-07-30T01:38:48;2.40;;;1.80;;
63587;SDS011;49966;46.896;18.004;2023-07-30T01:41:17;2.00;;;1.80;;
63587;SDS011;49966;46.896;18.004;2023-07-30T01:43:46;7.13;;;1.70;;
63587;SDS011;49966;46.896;18.004;2023-07-30T01:46:14;2.15;;;1.65;;
63587;SDS011;49966;46.896;18.004;2023-07-30T01:48:43;4.60;;;1.85;;
63587;SDS011;49966;46.896;18.004;2023-07-30T01:51:12;2.78;;;1.70;;
63587;SDS011;49966;46.896;18.004;2023-07-30T01:53:41;2.80;;;1.70;;
63587;SDS011;49966;46.896;18.004;2023-07-30T01:56:09;1.85;;;1.67;;
63587;SDS011;49966;46.896;18.004;2023-07-30T01:58:37;1.90;;;1.70;;
63587;SDS011;49966;46.896;18.004;2023-07-30T02:01:09;4.43;;;2.10;;
63587;SDS011;49966;46.896;18.004;2023-07-30T02:03:37;2.65;;;1.90;;
63587;SDS011;49966;46.896;18.004;2023-07-30T02:06:06;2.00;;;1.70;;
63587;SDS011;49966;46.896;18.004;2023-07-30T02:08:35;1.88;;;1.77;;
63587;SDS011;49966;46.896;18.004;2023-07-30T02:11:03;5.07;;;2.00;;
63587;SDS011;49966;46.896;18.004;2023-07-30T02:13:32;3.70;;;1.90;;
63587;SDS011;49966;46.896;18.004;2023-07-30T02:16:00;2.13;;;1.75;;
63587;SDS011;49966;46.896;18.004;2023-07-30T02:18:30;2.17;;;1.90;;
63587;SDS011;49966;46.896;18.004;2023-07-30T02:20:58;2.10;;;1.90;;
63587;SDS011;49966;46.896;18.004;2023-07-30T02:23:26;5.18;;;1.90;;
63587;SDS011;49966;46.896;18.004;2023-07-30T02:25:56;2.53;;;1.88;;
63587;SDS011;49966;46.896;18.004;2023-07-30T02:28:24;2.60;;;1.90;;
63587;SDS011;49966;46.896;18.004;2023-07-30T02:30:52;4.07;;;1.90;;
63587;SDS011;49966;46.896;18.004;2023-07-30T02:33:20;1.90;;;1.80;;
63587;SDS011;49966;46.896;18.004;2023-07-30T02:35:49;3.80;;;1.90;;
63587;SDS011;49966;46.896;18.004;2023-07-30T02:38:17;2.70;;;2.08;;
63587;SDS011;49966;46.896;18.004;2023-07-30T02:40:45;3.17;;;2.20;;
63587;SDS011;49966;46.896;18.004;2023-07-30T02:43:15;2.85;;;1.83;;
63587;SDS011;49966;46.896;18.004;2023-07-30T02:45:46;4.53;;;1.90;;
63587;SDS011;49966;46.896;18.004;2023-07-30T02:48:15;5.97;;;1.95;;
63587;SDS011;49966;46.896;18.004;2023-07-30T02:50:43;2.20;;;1.95;;
63587;SDS011;49966;46.896;18.004;2023-07-30T02:53:11;3.03;;;1.98;;
63587;SDS011;49966;46.896;18.004;2023-07-30T02:55:39;3.22;;;1.80;;
63587;SDS011;49966;46.896;18.004;2023-07-30T02:58:08;2.10;;;1.90;;
63587;SDS011;49966;46.896;18.004;2023-07-30T03:00:37;4.43;;;1.95;;
63587;SDS011;49966;46.896;18.004;2023-07-30T03:03:06;3.15;;;2.20;;
63587;SDS011;49966;46.896;18.004;2023-07-30T03:05:34;3.67;;;2.00;;
63587;SDS011;49966;46.896;18.004;2023-07-30T03:08:02;3.00;;;1.90;;
63587;SDS011;49966;46.896;18.004;2023-07-30T03:10:31;5.43;;;2.10;;
63587;SDS011;49966;46.896;18.004;2023-07-30T03:12:59;3.15;;;2.10;;
63587;SDS011;49966;46.896;18.004;2023-07-30T03:15:28;5.97;;;2.15;;
63587;SDS011;49966;46.896;18.004;2023-07-30T03:17:57;2.50;;;2.28;;
63587;SDS011;49966;46.896;18.004;2023-07-30T03:20:25;6.88;;;2.40;;
63587;SDS011;49966;46.896;18.004;2023-07-30T03:22:54;4.95;;;2.10;;
63587;SDS011;49966;46.896;18.004;2023-07-30T03:25:22;1.90;;;1.80;;
63587;SDS011;49966;46.896;18.004;2023-07-30T03:27:50;3.75;;;2.05;;
63587;SDS011;49966;46.896;18.004;2023-07-30T03:30:19;4.45;;;2.15;;
63587;SDS011;49966;46.896;18.004;2023-07-30T03:32:47;3.63;;;2.30;;
63587;SDS011;49966;46.896;18.004;2023-07-30T03:35:17;2.40;;;2.20;;
63587;SDS011;49966;46.896;18.004;2023-07-30T03:37:45;2.75;;;2.00;;
63587;SDS011;49966;46.896;18.004;2023-07-30T03:40:13;2.15;;;2.03;;
63587;SDS011;49966;46.896;18.004;2023-07-30T03:42:50;3.92;;;2.10;;
63587;SDS011;49966;46.896;18.004;2023-07-30T03:45:19;1.95;;;1.80;;
63587;SDS011;49966;46.896;18.004;2023-07-30T03:47:48;2.10;;;1.90;;
63587;SDS011;49966;46.896;18.004;2023-07-30T03:50:18;2.10;;;1.90;;
63587;SDS011;49966;46.896;18.004;2023-07-30T03:52:46;2.20;;;2.00;;
63587;SDS011;49966;46.896;18.004;2023-07-30T03:55:15;2.85;;;1.95;;
63587;SDS011;49966;46.896;18.004;2023-07-30T03:57:43;2.00;;;1.85;;
63587;SDS011;49966;46.896;18.004;2023-07-30T04:00:12;2.38;;;2.13;;
63587;SDS011;49966;46.896;18.004;2023-07-30T04:02:40;3.85;;;1.98;;
63587;SDS011;49966;46.896;18.004;2023-07-30T04:05:10;2.30;;;2.10;;
63587;SDS011;49966;46.896;18.004;2023-07-30T04:07:40;3.53;;;1.92;;
63587;SDS011;49966;46.896;18.004;2023-07-30T04:10:09;2.78;;;2.00;;
63587;SDS011;49966;46.896;18.004;2023-07-30T04:12:37;2.30;;;2.10;;
63587;SDS011;49966;46.896;18.004;2023-07-30T04:15:06;5.32;;;2.65;;
63587;SDS011;49966;46.896;18.004;2023-07-30T04:17:35;2.05;;;1.85;;
63587;SDS011;49966;46.896;18.004;2023-07-30T04:20:05;3.03;;;2.17;;
63587;SDS011;49966;46.896;18.004;2023-07-30T04:22:34;4.93;;;2.10;;
63587;SDS011;49966;46.896;18.004;2023-07-30T04:25:08;5.50;;;2.13;;
63587;SDS011;49966;46.896;18.004;2023-07-30T04:27:39;2.85;;;2.10;;
63587;SDS011;49966;46.896;18.004;2023-07-30T04:30:07;2.55;;;2.35;;
63587;SDS011;49966;46.896;18.004;2023-07-30T04:32:36;2.45;;;2.10;;
63587;SDS011;49966;46.896;18.004;2023-07-30T04:35:05;4.47;;;2.28;;
63587;SDS011;49966;46.896;18.004;2023-07-30T04:37:34;3.35;;;2.20;;
63587;SDS011;49966;46.896;18.004;2023-07-30T04:40:03;4.30;;;2.47;;
63587;SDS011;49966;46.896;18.004;2023-07-30T04:42:34;2.28;;;2.05;;
63587;SDS011;49966;46.896;18.004;2023-07-30T04:45:02;3.15;;;2.10;;
63587;SDS011;49966;46.896;18.004;2023-07-30T04:47:31;3.58;;;2.42;;
63587;SDS011;49966;46.896;18.004;2023-07-30T04:50:00;2.40;;;2.20;;
63587;SDS011;49966;46.896;18.004;2023-07-30T04:52:29;5.03;;;2.20;;
63587;SDS011;49966;46.896;18.004;2023-07-30T04:54:58;6.00;;;2.10;;
63587;SDS011;49966;46.896;18.004;2023-07-30T04:57:26;3.78;;;2.47;;
63587;SDS011;49966;46.896;18.004;2023-07-30T04:59:56;4.32;;;2.50;;
63587;SDS011;49966;46.896;18.004;2023-07-30T05:02:29;6.05;;;2.20;;
63587;SDS011;49966;46.896;18.004;2023-07-30T05:04:57;3.25;;;2.20;;
63587;SDS011;49966;46.896;18.004;2023-07-30T05:07:26;3.42;;;2.47;;
63587;SDS011;49966;46.896;18.004;2023-07-30T05:10:01;2.97;;;2.53;;
63587;SDS011;49966;46.896;18.004;2023-07-30T05:12:33;2.97;;;2.35;;
63587;SDS011;49966;46.896;18.004;2023-07-30T05:15:04;4.93;;;2.45;;
63587;SDS011;49966;46.896;18.004;2023-07-30T05:17:33;3.00;;;2.53;;
63587;SDS011;49966;46.896;18.004;2023-07-30T05:20:24;3.55;;;2.50;;
63587;SDS011;49966;46.896;18.004;2023-07-30T05:23:02;5.93;;;2.38;;
63587;SDS011;49966;46.896;18.004;2023-07-30T05:25:33;3.42;;;2.58;;
63587;SDS011;49966;46.896;18.004;2023-07-30T05:28:15;3.92;;;2.40;;
63587;SDS011;49966;46.896;18.004;2023-07-30T05:30:54;4.10;;;2.47;;
63587;SDS011;49966;46.896;18.004;2023-07-30T05:33:37;2.70;;;2.40;;
63587;SDS011;49966;46.896;18.004;2023-07-30T05:41:27;2.75;;;2.33;;
63587;SDS011;49966;46.896;18.004;2023-07-30T05:43:56;3.72;;;2.50;;
63587;SDS011;49966;46.896;18.004;2023-07-30T05:46:25;3.90;;;2.75;;
63587;SDS011;49966;46.896;18.004;2023-07-30T05:48:54;3.05;;;2.47;;
63587;SDS011;49966;46.896;18.004;2023-07-30T05:51:22;5.80;;;2.38;;
63587;SDS011;49966;46.896;18.004;2023-07-30T05:53:50;2.05;;;1.95;;
63587;SDS011;49966;46.896;18.004;2023-07-30T05:56:29;2.55;;;2.10;;
63587;SDS011;49966;46.896;18.004;2023-07-30T05:58:57;2.72;;;2.25;;
63587;SDS011;49966;46.896;18.004;2023-07-30T06:01:27;2.40;;;2.20;;
63587;SDS011;49966;46.896;18.004;2023-07-30T06:03:56;3.60;;;2.10;;
63587;SDS011;49966;46.896;18.004;2023-07-30T06:06:24;3.63;;;2.05;;
63587;SDS011;49966;46.896;18.004;2023-07-30T06:08:54;2.80;;;2.10;;
63587;SDS011;49966;46.896;18.004;2023-07-30T06:11:23;3.40;;;2.33;;
63587;SDS011;49966;46.896;18.004;2023-07-30T06:13:53;1.98;;;1.80;;
63587;SDS011;49966;46.896;18.004;2023-07-30T06:16:23;2.45;;;1.80;;
63587;SDS011;49966;46.896;18.004;2023-07-30T06:18:53;3.15;;;2.03;;
63587;SDS011;49966;46.896;18.004;2023-07-30T06:21:26;6.13;;;1.98;;
63587;SDS011;49966;46.896;18.004;2023-07-30T06:23:55;1.92;;;1.83;;
63587;SDS011;49966;46.896;18.004;2023-07-30T06:26:41;4.10;;;2.00;;
63587;SDS011;49966;46.896;18.004;2023-07-30T06:29:09;2.05;;;1.88;;
63587;SDS011;49966;46.896;18.004;2023-07-30T06:31:38;1.95;;;1.85;;
63587;SDS011;49966;46.896;18.004;2023-07-30T06:34:11;2.20;;;1.92;;
63587;SDS011;49966;46.896;18.004;2023-07-30T06:36:39;5.03;;;2.10;;
63587;SDS011;49966;46.896;18.004;2023-07-30T06:39:10;2.28;;;2.08;;
63587;SDS011;49966;46.896;18.004;2023-07-30T06:41:39;5.88;;;2.08;;
63587;SDS011;49966;46.896;18.004;2023-07-30T06:44:09;2.40;;;2.00;;
63587;SDS011;49966;46.896;18.004;2023-07-30T06:46:37;2.95;;;2.08;;
63587;SDS011;49966;46.896;18.004;2023-07-30T06:49:07;5.25;;;2.10;;
63587;SDS011;49966;46.896;18.004;2023-07-30T06:51:37;2.15;;;1.80;;
63587;SDS011;49966;46.896;18.004;2023-07-30T06:54:06;2.40;;;2.20;;
63587;SDS011;49966;46.896;18.004;2023-07-30T06:56:34;4.75;;;2.13;;
63587;SDS011;49966;46.896;18.004;2023-07-30T06:59:05;4.43;;;2.00;;
63587;SDS011;49966;46.896;18.004;2023-07-30T07:01:33;2.72;;;2.15;;
63587;SDS011;49966;46.896;18.004;2023-07-30T07:04:04;2.78;;;1.92;;
63587;SDS011;49966;46.896;18.004;2023-07-30T07:06:32;2.00;;;1.80;;
63587;SDS011;49966;46.896;18.004;2023-07-30T07:09:02;3.92;;;1.95;;
63587;SDS011;49966;46.896;18.004;2023-07-30T07:11:31;2.78;;;2.05;;
63587;SDS011;49966;46.896;18.004;2023-07-30T07:13:59;4.10;;;2.08;;
63587;SDS011;49966;46.896;18.004;2023-07-30T07:16:27;2.75;;;2.05;;
63587;SDS011;49966;46.896;18.004;2023-07-30T07:18:56;2.08;;;1.88;;
63587;SDS011;49966;46.896;18.004;2023-07-30T07:21:29;3.85;;;2.20;;
63587;SDS011;49966;46.896;18.004;2023-07-30T07:23:58;5.40;;;2.35;;
63587;SDS011;49966;46.896;18.004;2023-07-30T07:26:28;2.30;;;2.10;;
63587;SDS011;49966;46.896;18.004;2023-07-30T07:28:57;3.28;;;2.13;;
63587;SDS011;49966;46.896;18.004;2023-07-30T07:31:26;2.17;;;1.98;;
63587;SDS011;49966;46.896;18.004;2023-07-30T07:33:54;2.17;;;1.98;;
63587;SDS011;49966;46.896;18.004;2023-07-30T07:36:23;4.18;;;2.38;;
63587;SDS011;49966;46.896;18.004;2023-07-30T07:38:51;3.70;;;2.10;;
63587;SDS011;49966;46.896;18.004;2023-07-30T07:41:19;2.97;;;2.10;;
63587;SDS011;49966;46.896;18.004;2023-07-30T07:43:49;2.88;;;2.25;;
63587;SDS011;49966;46.896;18.004;2023-07-30T07:46:19;4.03;;;2.10;;
63587;SDS011;49966;46.896;18.004;2023-07-30T07:48:48;5.53;;;2.20;;
63587;SDS011;49966;46.896;18.004;2023-07-30T07:51:16;3.97;;;2.15;;
63587;SDS011;49966;46.896;18.004;2023-07-30T07:53:45;2.95;;;2.20;;
63587;SDS011;49966;46.896;18.004;2023-07-30T07:56:13;3.10;;;2.00;;
63587;SDS011;49966;46.896;18.004;2023-07-30T07:58:46;3.28;;;2.30;;
63587;SDS011;49966;46.896;18.004;2023-07-30T08:01:16;2.72;;;2.05;;
63587;SDS011;49966;46.896;18.004;2023-07-30T08:03:46;4.13;;;2.33;;
63587;SDS011;49966;46.896;18.004;2023-07-30T08:06:14;5.00;;;2.30;;
63587;SDS011;49966;46.896;18.004;2023-07-30T08:08:42;3.08;;;2.10;;
63587;SDS011;49966;46.896;18.004;2023-07-30T08:11:18;5.38;;;2.45;;
63587;SDS011;49966;46.896;18.004;2023-07-30T08:13:47;3.08;;;2.13;;
63587;SDS011;49966;46.896;18.004;2023-07-30T08:16:17;3.17;;;2.50;;
63587;SDS011;49966;46.896;18.004;2023-07-30T08:18:50;7.18;;;2.63;;
63587;SDS011;49966;46.896;18.004;2023-07-30T08:21:19;3.47;;;2.30;;
63587;SDS011;49966;46.896;18.004;2023-07-30T08:23:52;4.78;;;2.42;;
63587;SDS011;49966;46.896;18.004;2023-07-30T08:26:21;3.00;;;2.30;;
63587;SDS011;49966;46.896;18.004;2023-07-30T08:28:49;4.40;;;2.42;;
63587;SDS011;49966;46.896;18.004;2023-07-30T08:31:21;5.47;;;2.53;;
63587;SDS011;49966;46.896;18.004;2023-07-30T08:33:50;4.07;;;2.42;;
63587;SDS011;49966;46.896;18.004;2023-07-30T08:36:19;4.75;;;2.55;;
63587;SDS011;49966;46.896;18.004;2023-07-30T08:38:49;5.80;;;2.55;;
63587;SDS011;49966;46.896;18.004;2023-07-30T08:41:21;5.13;;;2.65;;
63587;SDS011;49966;46.896;18.004;2023-07-30T08:43:50;7.47;;;2.45;;
63587;SDS011;49966;46.896;18.004;2023-07-30T08:46:19;7.88;;;2.85;;
63587;SDS011;49966;46.896;18.004;2023-07-30T08:48:49;6.65;;;2.40;;
63587;SDS011;49966;46.896;18.004;2023-07-30T08:51:17;3.83;;;2.58;;
63587;SDS011;49966;46.896;18.004;2023-07-30T08:53:47;5.45;;;2.53;;
63587;SDS011;49966;46.896;18.004;2023-07-30T08:56:15;2.88;;;2.38;;
63587;SDS011;49966;46.896;18.004;2023-07-30T08:58:44;7.75;;;2.47;;
63587;SDS011;49966;46.896;18.004;2023-07-30T09:01:16;6.00;;;2.53;;
63587;SDS011;49966;46.896;18.004;2023-07-30T09:03:47;3.17;;;2.42;;
63587;SDS011;49966;46.896;18.004;2023-07-30T09:06:27;5.30;;;2.50;;
63587;SDS011;49966;46.896;18.004;2023-07-30T09:08:58;5.07;;;2.75;;
63587;SDS011;49966;46.896;18.004;2023-07-30T09:11:35;5.03;;;2.60;;
63587;SDS011;49966;46.896;18.004;2023-07-30T09:14:06;4.35;;;2.22;;
63587;SDS011;49966;46.896;18.004;2023-07-30T09:16:34;4.70;;;2.53;;
63587;SDS011;49966;46.896;18.004;2023-07-30T09:19:05;5.13;;;2.65;;
63587;SDS011;49966;46.896;18.004;2023-07-30T09:21:34;5.03;;;2.55;;
63587;SDS011;49966;46.896;18.004;2023-07-30T09:24:03;5.60;;;2.65;;
63587;SDS011;49966;46.896;18.004;2023-07-30T09:26:42;3.60;;;2.42;;
63587;SDS011;49966;46.896;18.004;2023-07-30T09:29:11;5.07;;;2.75;;
63587;SDS011;49966;46.896;18.004;2023-07-30T09:34:37;5.95;;;2.83;;
63587;SDS011;49966;46.896;18.004;2023-07-30T09:37:25;6.97;;;2.45;;
63587;SDS011;49966;46.896;18.004;2023-07-30T09:43:14;6.55;;;2.90;;
63587;SDS011;49966;46.896;18.004;2023-07-30T09:45:44;4.90;;;2.67;;
63587;SDS011;49966;46.896;18.004;2023-07-30T09:48:52;6.68;;;3.17;;
63587;SDS011;49966;46.896;18.004;2023-07-30T09:51:22;3.38;;;2.50;;
63587;SDS011;49966;46.896;18.004;2023-07-30T09:54:17;5.53;;;2.67;;
63587;SDS011;49966;46.896;18.004;2023-07-30T09:56:46;6.30;;;2.50;;
63587;SDS011;49966;46.896;18.004;2023-07-30T09:59:15;7.15;;;2.83;;
63587;SDS011;49966;46.896;18.004;2023-07-30T10:01:45;3.70;;;2.50;;
63587;SDS011;49966;46.896;18.004;2023-07-30T10:04:19;3.38;;;2.45;;
63587;SDS011;49966;46.896;18.004;2023-07-30T10:06:51;3.78;;;2.50;;
63587;SDS011;49966;46.896;18.004;2023-07-30T10:09:27;4.15;;;2.38;;
63587;SDS011;49966;46.896;18.004;2023-07-30T10:11:58;7.30;;;3.53;;
63587;SDS011;49966;46.896;18.004;2023-07-30T10:14:30;3.25;;;2.50;;
63587;SDS011;49966;46.896;18.004;2023-07-30T10:16:59;3.38;;;2.40;;
63587;SDS011;49966;46.896;18.004;2023-07-30T10:19:32;4.95;;;2.67;;
63587;SDS011;49966;46.896;18.004;2023-07-30T10:24:55;3.10;;;2.25;;
63587;SDS011;49966;46.896;18.004;2023-07-30T10:27:25;4.38;;;2.33;;
63587;SDS011;49966;46.896;18.004;2023-07-30T10:30:12;6.05;;;2.75;;
63587;SDS011;49966;46.896;18.004;2023-07-30T10:33:00;2.95;;;2.65;;
63587;SDS011;49966;46.896;18.004;2023-07-30T10:35:34;6.80;;;2.60;;
63587;SDS011;49966;46.896;18.004;2023-07-30T10:41:00;3.95;;;2.55;;
63587;SDS011;49966;46.896;18.004;2023-07-30T10:43:34;7.25;;;3.15;;
63587;SDS011;49966;46.896;18.004;2023-07-30T10:46:05;4.65;;;2.90;;
63587;SDS011;49966;46.896;18.004;2023-07-30T10:48:38;3.50;;;2.60;;
63587;SDS011;49966;46.896;18.004;2023-07-30T10:51:50;4.50;;;2.70;;
63587;SDS011;49966;46.896;18.004;2023-07-30T10:54:39;4.15;;;2.70;;
63587;SDS011;49966;46.896;18.004;2023-07-30T10:57:13;4.72;;;2.80;;
63587;SDS011;49966;46.896;18.004;2023-07-30T10:59:48;3.30;;;2.40;;
63587;SDS011;49966;46.896;18.004;2023-07-30T11:02:23;3.30;;;2.77;;
63587;SDS011;49966;46.896;18.004;2023-07-30T11:08:01;4.50;;;2.88;;
63587;SDS011;49966;46.896;18.004;2023-07-30T11:10:45;4.53;;;2.70;;
63587;SDS011;49966;46.896;18.004;2023-07-30T11:13:35;3.17;;;2.53;;
63587;SDS011;49966;46.896;18.004;2023-07-30T11:16:48;3.58;;;2.40;;
63587;SDS011;49966;46.896;18.004;2023-07-30T11:19:18;2.53;;;2.30;;
63587;SDS011;49966;46.896;18.004;2023-07-30T11:21:46;3.05;;;2.22;;
63587;SDS011;49966;46.896;18.004;2023-07-30T11:24:20;4.53;;;2.35;;
63587;SDS011;49966;46.896;18.004;2023-07-30T11:26:59;3.13;;;2.38;;
63587;SDS011;49966;46.896;18.004;2023-07-30T11:29:28;3.92;;;2.70;;
63587;SDS011;49966;46.896;18.004;2023-07-30T11:31:57;4.38;;;2.40;;
63587;SDS011;49966;46.896;18.004;2023-07-30T11:34:30;4.68;;;2.30;;
63587;SDS011;49966;46.896;18.004;2023-07-30T11:37:04;4.13;;;2.50;;
63587;SDS011;49966;46.896;18.004;2023-07-30T11:39:33;2.92;;;2.22;;
63587;SDS011;49966;46.896;18.004;2023-07-30T11:42:03;4.63;;;2.50;;
63587;SDS011;49966;46.896;18.004;2023-07-30T11:44:34;4.72;;;2.22;;
63587;SDS011;49966;46.896;18.004;2023-07-30T11:47:05;5.60;;;2.60;;
63587;SDS011;49966;46.896;18.004;2023-07-30T11:49:33;4.18;;;2.40;;
63587;SDS011;49966;46.896;18.004;2023-07-30T11:52:05;6.88;;;2.25;;
63587;SDS011;49966;46.896;18.004;2023-07-30T11:54:34;4.85;;;2.30;;
63587;SDS011;49966;46.896;18.004;2023-07-30T11:57:06;3.17;;;2.17;;
63587;SDS011;49966;46.896;18.004;2023-07-30T11:59:34;4.38;;;2.33;;
63587;SDS011;49966;46.896;18.004;2023-07-30T12:02:14;2.78;;;2.40;;
63587;SDS011;49966;46.896;18.004;2023-07-30T12:04:45;3.90;;;2.53;;
63587;SDS011;49966;46.896;18.004;2023-07-30T12:07:32;2.95;;;2.17;;
63587;SDS011;49966;46.896;18.004;2023-07-30T12:10:08;4.15;;;2.40;;
63587;SDS011;49966;46.896;18.004;2023-07-30T12:12:51;2.88;;;2.40;;
63587;SDS011;49966;46.896;18.004;2023-07-30T12:15:20;4.30;;;2.60;;
63587;SDS011;49966;46.896;18.004;2023-07-30T12:17:49;4.32;;;2.28;;
63587;SDS011;49966;46.896;18.004;2023-07-30T12:20:18;2.92;;;2.60;;
63587;SDS011;49966;46.896;18.004;2023-07-30T12:22:46;4.20;;;2.45;;
63587;SDS011;49966;46.896;18.004;2023-07-30T12:25:14;5.25;;;2.30;;
63587;SDS011;49966;46.896;18.004;2023-07-30T12:27:44;3.75;;;2.40;;
63587;SDS011;49966;46.896;18.004;2023-07-30T12:30:17;4.38;;;2.58;;
63587;SDS011;49966;46.896;18.004;2023-07-30T12:32:46;3.97;;;2.50;;
63587;SDS011;49966;46.896;18.004;2023-07-30T12:35:14;3.58;;;2.38;;
63587;SDS011;49966;46.896;18.004;2023-07-30T12:37:43;2.63;;;2.42;;
63587;SDS011;49966;46.896;18.004;2023-07-30T12:40:11;4.20;;;2.50;;
63587;SDS011;49966;46.896;18.004;2023-07-30T12:42:40;2.72;;;2.53;;
63587;SDS011;49966;46.896;18.004;2023-07-30T12:45:11;5.30;;;2.60;;
63587;SDS011;49966;46.896;18.004;2023-07-30T12:47:39;4.15;;;2.47;;
63587;SDS011;49966;46.896;18.004;2023-07-30T12:50:14;3.40;;;2.40;;
63587;SDS011;49966;46.896;18.004;2023-07-30T12:52:43;3.85;;;2.42;;
63587;SDS011;49966;46.896;18.004;2023-07-30T12:55:11;4.45;;;2.47;;
63587;SDS011;49966;46.896;18.004;2023-07-30T12:57:39;5.25;;;2.60;;
63587;SDS011;49966;46.896;18.004;2023-07-30T13:00:08;3.03;;;2.38;;
63587;SDS011;49966;46.896;18.004;2023-07-30T13:02:42;4.18;;;2.40;;
63587;SDS011;49966;46.896;18.004;2023-07-30T13:05:11;3.45;;;2.30;;
63587;SDS011;49966;46.896;18.004;2023-07-30T13:07:43;4.15;;;2.35;;
63587;SDS011;49966;46.896;18.004;2023-07-30T13:10:13;2.40;;;2.20;;
63587;SDS011;49966;46.896;18.004;2023-07-30T13:12:43;2.72;;;2.40;;
63587;SDS011;49966;46.896;18.004;2023-07-30T13:15:22;3.95;;;2.40;;
63587;SDS011;49966;46.896;18.004;2023-07-30T13:17:50;4.35;;;2.47;;
63587;SDS011;49966;46.896;18.004;2023-07-30T13:20:20;4.10;;;2.50;;
63587;SDS011;49966;46.896;18.004;2023-07-30T13:22:54;5.55;;;2.47;;
63587;SDS011;49966;46.896;18.004;2023-07-30T13:25:27;5.05;;;2.53;;
63587;SDS011;49966;46.896;18.004;2023-07-30T13:27:56;5.47;;;2.30;;
63587;SDS011;49966;46.896;18.004;2023-07-30T13:30:29;3.67;;;2.20;;
63587;SDS011;49966;46.896;18.004;2023-07-30T13:33:01;4.95;;;2.50;;
63587;SDS011;49966;46.896;18.004;2023-07-30T13:35:34;4.50;;;3.00;;
63587;SDS011;49966;46.896;18.004;2023-07-30T13:38:05;2.40;;;2.20;;
63587;SDS011;49966;46.896;18.004;2023-07-30T13:40:54;5.22;;;2.60;;
63587;SDS011;49966;46.896;18.004;2023-07-30T13:43:25;2.38;;;2.10;;
63587;SDS011;49966;46.896;18.004;2023-07-30T13:46:01;3.60;;;2.50;;
63587;SDS011;49966;46.896;18.004;2023-07-30T13:51:54;2.95;;;2.20;;
63587;SDS011;49966;46.896;18.004;2023-07-30T13:54:26;4.45;;;2.40;;
63587;SDS011;49966;46.896;18.004;2023-07-30T13:57:02;3.63;;;2.50;;
63587;SDS011;49966;46.896;18.004;2023-07-30T13:59:33;3.55;;;2.00;;
63587;SDS011;49966;46.896;18.004;2023-07-30T14:02:14;2.75;;;2.15;;
63587;SDS011;49966;46.896;18.004;2023-07-30T14:06:09;3.20;;;2.30;;
63587;SDS011;49966;46.896;18.004;2023-07-30T14:08:38;5.00;;;2.50;;
63587;SDS011;49966;46.896;18.004;2023-07-30T14:11:16;3.05;;;2.22;;
63587;SDS011;49966;46.896;18.004;2023-07-30T14:13:49;2.42;;;2.13;;
63587;SDS011;49966;46.896;18.004;2023-07-30T14:16:21;2.60;;;2.30;;
63587;SDS011;49966;46.896;18.004;2023-07-30T14:18:54;2.92;;;2.10;;
63587;SDS011;49966;46.896;18.004;2023-07-30T14:21:28;2.42;;;2.20;;
63587;SDS011;49966;46.896;18.004;2023-07-30T14:24:07;3.65;;;2.08;;
63587;SDS011;49966;46.896;18.004;2023-07-30T14:26:39;2.55;;;2.30;;
63587;SDS011;49966;46.896;18.004;2023-07-30T14:29:13;2.28;;;2.08;;
63587;SDS011;49966;46.896;18.004;2023-07-30T14:31:45;3.47;;;2.40;;
63587;SDS011;49966;46.896;18.004;2023-07-30T14:34:19;2.15;;;1.80;;
63587;SDS011;49966;46.896;18.004;2023-07-30T14:40:42;3.15;;;2.20;;
63587;SDS011;49966;46.896;18.004;2023-07-30T14:43:16;2.15;;;2.00;;
63587;SDS011;49966;46.896;18.004;2023-07-30T14:45:45;3.90;;;2.20;;
63587;SDS011;49966;46.896;18.004;2023-07-30T14:48:17;2.20;;;2.00;;
63587;SDS011;49966;46.896;18.004;2023-07-30T14:50:50;3.20;;;2.42;;
63587;SDS011;49966;46.896;18.004;2023-07-30T14:53:19;4.78;;;2.10;;
63587;SDS011;49966;46.896;18.004;2023-07-30T14:55:52;2.20;;;2.00;;
63587;SDS011;49966;46.896;18.004;2023-07-30T14:58:22;2.20;;;2.00;;
63587;SDS011;49966;46.896;18.004;2023-07-30T15:00:54;3.58;;;2.00;;
63587;SDS011;49966;46.896;18.004;2023-07-30T15:03:42;2.80;;;2.10;;
63587;SDS011;49966;46.896;18.004;2023-07-30T15:06:12;3.03;;;2.20;;
63587;SDS011;49966;46.896;18.004;2023-07-30T15:08:50;3.40;;;2.20;;
63587;SDS011;49966;46.896;18.004;2023-07-30T15:12:36;1.80;;;1.70;;
63587;SDS011;49966;46.896;18.004;2023-07-30T15:15:09;2.53;;;2.00;;
63587;SDS011;49966;46.896;18.004;2023-07-30T15:17:50;2.42;;;2.10;;
63587;SDS011;49966;46.896;18.004;2023-07-30T15:20:19;2.53;;;2.33;;
63587;SDS011;49966;46.896;18.004;2023-07-30T15:22:54;2.22;;;2.05;;
63587;SDS011;49966;46.896;18.004;2023-07-30T15:25:24;2.78;;;2.10;;
63587;SDS011;49966;46.896;18.004;2023-07-30T15:27:52;2.35;;;2.05;;